Time;durP1;ratioP1;P1;durP2;ratioP2;P2;SDS_P1;SDS_P2;PMS_P1;PMS_P2;Temp;Humidity;BMP_temperature;BMP_pressure;BME280_temperature;BME280_humidity;BME280_pressure;Samples;Min_cycle;Max_cycle;Signal;HPM_P1;HPM_P2
2022/04/09 00:00:40;;;;;;;4.15;1.50;;;22.00;40.60;;;;;;4994619;28;20102;-63
2022/04/09 00:03:06;;;;;;;3.35;1.73;;;22.00;40.50;;;;;;4993713;28;20057;-64
2022/04/09 00:05:31;;;;;;;3.28;1.50;;;22.00;40.60;;;;;;4996040;28;20100;-62
2022/04/09 00:07:57;;;;;;;3.78;1.60;;;22.00;40.60;;;;;;4978515;28;20061;-63
2022/04/09 00:10:23;;;;;;;2.88;1.40;;;21.90;40.50;;;;;;4996530;28;20046;-63
2022/04/09 00:12:48;;;;;;;2.63;1.33;;;21.90;40.40;;;;;;4978046;28;20444;-65
2022/04/09 00:15:16;;;;;;;3.42;1.33;;;21.90;41.10;;;;;;4995909;28;20069;-66
2022/04/09 00:17:44;;;;;;;3.97;1.48;;;21.90;40.40;;;;;;4985304;28;20046;-63
2022/04/09 00:20:11;;;;;;;3.85;1.42;;;21.90;40.40;;;;;;4994447;28;20046;-63
2022/04/09 00:22:38;;;;;;;2.78;1.40;;;21.90;40.40;;;;;;4996529;28;20052;-63
2022/04/09 00:25:09;;;;;;;3.83;1.17;;;21.80;40.30;;;;;;4998122;28;20038;-65
2022/04/09 00:27:35;;;;;;;2.78;1.40;;;21.80;40.30;;;;;;4997841;28;20053;-63
2022/04/09 00:30:01;;;;;;;2.00;1.20;;;21.80;40.30;;;;;;4996421;28;20584;-63
2022/04/09 00:32:28;;;;;;;3.20;1.20;;;21.80;40.30;;;;;;4992619;28;20057;-62
2022/04/09 00:34:53;;;;;;;2.67;1.17;;;21.70;40.30;;;;;;4993807;28;20046;-65
2022/04/09 00:37:19;;;;;;;1.40;1.15;;;21.70;40.30;;;;;;4994634;28;20107;-63
2022/04/09 00:39:44;;;;;;;2.85;1.10;;;21.70;40.30;;;;;;4996097;28;20050;-63
2022/04/09 00:42:14;;;;;;;3.00;1.23;;;21.70;40.30;;;;;;5002149;28;20042;-64
2022/04/09 00:44:40;;;;;;;2.40;1.30;;;21.70;40.50;;;;;;4996016;28;20101;-63
2022/04/09 00:47:06;;;;;;;2.83;1.30;;;21.60;40.40;;;;;;4992832;28;20635;-65
2022/04/09 00:49:32;;;;;;;3.00;1.30;;;21.60;40.20;;;;;;4994957;28;20050;-65
2022/04/09 00:52:00;;;;;;;2.55;1.17;;;21.60;40.20;;;;;;4995258;28;20080;-63
2022/04/09 00:54:29;;;;;;;2.75;1.15;;;21.60;40.30;;;;;;4995392;28;20089;-65
2022/04/09 00:57:01;;;;;;;3.60;1.48;;;21.60;40.30;;;;;;4993080;28;20142;-64
2022/04/09 00:59:30;;;;;;;2.15;1.08;;;21.60;40.20;;;;;;4996505;28;20042;-63
2022/04/09 01:01:56;;;;;;;2.33;0.93;;;21.50;40.20;;;;;;4994869;28;20042;-65
2022/04/09 01:04:22;;;;;;;3.20;1.05;;;21.50;40.20;;;;;;4999584;28;20049;-64
2022/04/09 01:06:48;;;;;;;3.17;1.30;;;21.50;40.20;;;;;;4991864;28;20659;-63
2022/04/09 01:09:14;;;;;;;3.53;1.23;;;21.50;40.20;;;;;;4995453;28;20458;-63
2022/04/09 01:11:40;;;;;;;2.28;1.08;;;21.50;40.20;;;;;;4994630;28;20046;-64
2022/04/09 01:14:06;;;;;;;2.17;1.08;;;21.50;40.20;;;;;;4992718;28;20216;-64
2022/04/09 01:16:32;;;;;;;2.05;0.90;;;21.40;40.20;;;;;;4995277;28;20054;-63
2022/04/09 01:18:59;;;;;;;2.40;1.20;;;21.40;40.20;;;;;;4994092;28;20058;-63
2022/04/09 01:21:26;;;;;;;2.03;1.00;;;21.40;40.20;;;;;;5001692;28;20054;-64
2022/04/09 01:23:52;;;;;;;3.28;1.30;;;21.40;40.10;;;;;;4991211;28;20401;-62
2022/04/09 01:26:18;;;;;;;2.83;1.20;;;21.40;40.20;;;;;;4980833;28;20049;-63
2022/04/09 01:28:44;;;;;;;1.80;1.00;;;21.40;40.10;;;;;;4994488;28;20461;-65
2022/04/09 01:31:10;;;;;;;2.70;1.15;;;21.40;40.10;;;;;;4991607;28;20037;-63
2022/04/09 01:33:36;;;;;;;1.80;1.00;;;21.30;40.00;;;;;;4996051;28;20049;-62
2022/04/09 01:36:02;;;;;;;3.22;1.17;;;21.30;40.00;;;;;;4996656;28;20042;-64
2022/04/09 01:38:27;;;;;;;1.80;0.90;;;21.30;40.00;;;;;;4994576;28;20046;-66
2022/04/09 01:40:56;;;;;;;1.75;1.00;;;21.30;40.00;;;;;;4993370;28;20475;-62
2022/04/09 01:43:22;;;;;;;2.10;1.08;;;21.30;40.10;;;;;;4993773;28;20045;-64
2022/04/09 01:45:48;;;;;;;2.50;0.85;;;21.30;40.00;;;;;;5000475;28;20302;-63
2022/04/09 01:48:14;;;;;;;2.08;1.17;;;21.30;40.00;;;;;;4979024;28;20042;-62
2022/04/09 01:50:40;;;;;;;1.88;0.90;;;21.20;40.00;;;;;;5000011;28;20104;-62
2022/04/09 01:53:06;;;;;;;2.33;1.20;;;21.20;40.00;;;;;;4991506;28;20157;-63
2022/04/09 01:55:32;;;;;;;2.28;1.00;;;21.20;40.00;;;;;;4994157;28;20457;-63
2022/04/09 01:57:58;;;;;;;2.15;0.80;;;21.20;40.00;;;;;;4995071;28;20050;-63
2022/04/09 02:00:24;;;;;;;2.28;1.00;;;21.20;40.00;;;;;;4989050;28;20046;-62
2022/04/09 02:02:51;;;;;;;2.30;1.02;;;21.20;40.00;;;;;;4991664;28;20109;-66
2022/04/09 02:05:17;;;;;;;1.45;0.95;;;21.20;40.00;;;;;;4990654;28;20058;-63
2022/04/09 02:07:43;;;;;;;2.75;1.20;;;21.10;39.90;;;;;;4994670;28;20054;-63
2022/04/09 02:10:10;;;;;;;2.85;1.02;;;21.10;39.90;;;;;;4990300;28;20046;-64
2022/04/09 02:12:36;;;;;;;2.03;0.88;;;21.10;39.90;;;;;;4994054;28;20749;-62
2022/04/09 02:15:09;;;;;;;1.15;0.82;;;21.10;39.90;;;;;;4991313;28;20944;-62
2022/04/09 02:17:36;;;;;;;2.55;1.05;;;21.10;39.90;;;;;;4994194;28;20090;-63
2022/04/09 02:20:03;;;;;;;1.88;0.80;;;21.10;40.00;;;;;;4990556;28;20088;-64
2022/04/09 02:22:39;;;;;;;2.65;1.10;;;21.10;39.90;;;;;;4992233;28;20060;-63
2022/04/09 02:25:06;;;;;;;1.85;1.08;;;21.10;40.00;;;;;;4991979;28;20042;-62
2022/04/09 02:27:31;;;;;;;1.10;0.70;;;21.00;39.90;;;;;;4993188;28;20498;-64
2022/04/09 02:29:57;;;;;;;1.80;0.80;;;21.00;39.90;;;;;;4993416;28;20136;-62
2022/04/09 02:32:24;;;;;;;1.38;0.73;;;21.00;39.90;;;;;;4992396;28;20494;-63
2022/04/09 02:34:52;;;;;;;1.33;0.65;;;21.00;39.90;;;;;;4990937;28;20064;-64
2022/04/09 02:37:18;;;;;;;1.92;0.90;;;21.00;39.90;;;;;;4991836;28;20537;-63
2022/04/09 02:39:44;;;;;;;2.30;1.10;;;20.90;39.80;;;;;;4993958;28;20137;-63
2022/04/09 02:42:10;;;;;;;1.83;1.02;;;20.90;39.80;;;;;;4991467;28;20329;-63
2022/04/09 02:44:36;;;;;;;1.33;0.70;;;20.90;39.90;;;;;;4990859;28;20185;-63
2022/04/09 02:47:02;;;;;;;1.15;0.68;;;20.90;39.90;;;;;;4992494;28;20058;-63
2022/04/09 02:49:27;;;;;;;1.20;0.70;;;20.90;40.00;;;;;;4994377;28;20077;-63
2022/04/09 02:51:53;;;;;;;2.47;0.98;;;20.90;40.00;;;;;;4992367;28;20505;-63
2022/04/09 02:54:18;;;;;;;2.10;0.90;;;20.90;40.00;;;;;;4993364;28;20058;-64
2022/04/09 02:56:46;;;;;;;2.05;0.80;;;20.80;40.00;;;;;;4993594;28;20077;-62
2022/04/09 02:59:13;;;;;;;1.77;1.00;;;20.80;40.00;;;;;;4990861;28;20486;-63
2022/04/09 03:01:45;;;;;;;1.10;0.82;;;20.80;40.00;;;;;;4990647;28;20108;-63
2022/04/09 03:04:11;;;;;;;2.03;0.98;;;20.90;40.10;;;;;;4994254;28;20058;-62
2022/04/09 03:06:36;;;;;;;2.60;0.90;;;20.80;40.10;;;;;;4989171;28;20378;-63
2022/04/09 03:09:02;;;;;;;1.90;0.80;;;20.80;40.10;;;;;;4996230;28;20042;-62
2022/04/09 03:11:28;;;;;;;1.40;0.70;;;20.80;40.10;;;;;;4994072;28;20458;-61
2022/04/09 03:13:53;;;;;;;2.85;0.80;;;20.80;40.10;;;;;;4995126;28;20054;-66
2022/04/09 03:16:19;;;;;;;2.25;0.80;;;20.80;40.10;;;;;;4989821;28;20057;-61
2022/04/09 03:18:44;;;;;;;1.98;0.73;;;20.80;40.00;;;;;;4993321;28;20047;-63
2022/04/09 03:21:10;;;;;;;1.63;0.70;;;20.80;40.00;;;;;;4993698;28;20053;-62
2022/04/09 03:23:35;;;;;;;1.58;0.63;;;20.80;40.10;;;;;;4993130;28;20054;-62
2022/04/09 03:26:01;;;;;;;3.42;1.00;;;20.80;40.10;;;;;;4991041;28;20074;-61
2022/04/09 03:28:27;;;;;;;2.65;0.90;;;20.70;40.00;;;;;;4994532;28;20080;-62
2022/04/09 03:30:52;;;;;;;1.05;0.55;;;20.70;40.00;;;;;;4993748;28;20362;-61
2022/04/09 03:33:18;;;;;;;1.05;0.52;;;20.70;40.00;;;;;;4993751;28;20042;-62
2022/04/09 03:35:44;;;;;;;2.55;1.00;;;20.70;40.00;;;;;;4992417;28;20058;-61
2022/04/09 03:38:11;;;;;;;3.60;0.80;;;20.70;40.00;;;;;;4993976;28;20048;-61
2022/04/09 03:40:37;;;;;;;0.82;0.70;;;20.70;39.90;;;;;;4998098;28;20054;-62
2022/04/09 03:43:03;;;;;;;1.60;0.77;;;20.70;40.00;;;;;;5002752;28;20057;-63
2022/04/09 03:45:29;;;;;;;2.70;0.60;;;20.60;39.80;;;;;;4996025;28;20070;-62
2022/04/09 03:47:54;;;;;;;2.75;0.90;;;20.60;40.60;;;;;;4995368;28;20060;-62
2022/04/09 03:50:20;;;;;;;1.52;0.57;;;20.70;39.90;;;;;;4996537;28;20135;-62
2022/04/09 03:52:46;;;;;;;1.70;0.70;;;20.60;39.90;;;;;;4996985;28;20400;-64
2022/04/09 03:55:13;;;;;;;1.77;0.80;;;20.60;39.80;;;;;;4992356;28;20068;-62
2022/04/09 03:57:38;;;;;;;1.13;0.60;;;20.60;39.90;;;;;;4984246;28;20085;-62
2022/04/09 04:00:05;;;;;;;1.67;0.63;;;20.60;39.90;;;;;;4996547;28;20155;-63
2022/04/09 04:02:30;;;;;;;2.50;0.82;;;20.60;39.90;;;;;;4989129;28;20227;-66
2022/04/09 04:05:01;;;;;;;1.55;0.80;;;20.60;39.90;;;;;;4994467;28;20147;-66
2022/04/09 04:07:27;;;;;;;;;;;20.60;39.90;;;;;;4994249;28;20046;-64
2022/04/09 04:09:52;;;;;;;1.75;1.00;;;20.50;39.70;;;;;;4996025;28;19932;-63
2022/04/09 04:12:18;;;;;;;2.33;0.90;;;20.50;40.00;;;;;;4999420;28;20041;-64
2022/04/09 04:14:44;;;;;;;1.38;0.65;;;20.50;39.90;;;;;;4993188;28;20042;-65
2022/04/09 04:17:10;;;;;;;1.38;0.65;;;20.50;39.90;;;;;;4995864;28;20034;-62
2022/04/09 04:19:36;;;;;;;1.88;0.70;;;20.50;39.90;;;;;;4991984;28;20131;-63
2022/04/09 04:22:02;;;;;;;2.25;0.73;;;20.50;39.90;;;;;;4994668;28;20046;-63
2022/04/09 04:24:28;;;;;;;2.33;0.70;;;20.50;39.80;;;;;;4995975;28;20046;-61
2022/04/09 04:26:53;;;;;;;1.70;0.60;;;20.50;39.90;;;;;;4995681;28;20046;-63
2022/04/09 04:29:19;;;;;;;0.98;0.65;;;20.50;39.90;;;;;;4994564;28;20038;-63
2022/04/09 04:31:45;;;;;;;1.83;0.98;;;20.50;39.90;;;;;;4998292;28;20101;-62
2022/04/09 04:34:10;;;;;;;0.60;0.50;;;20.50;39.80;;;;;;4997029;28;20500;-62
2022/04/09 04:36:35;;;;;;;1.67;0.90;;;20.50;39.90;;;;;;4979323;28;20559;-63
2022/04/09 04:39:01;;;;;;;1.83;0.80;;;20.40;39.90;;;;;;4991668;28;20053;-62
2022/04/09 04:41:27;;;;;;;1.25;0.65;;;20.40;39.80;;;;;;4997143;28;20053;-66
2022/04/09 04:43:52;;;;;;;1.92;0.88;;;20.40;39.90;;;;;;4997084;28;20058;-66
2022/04/09 04:46:19;;;;;;;2.47;0.70;;;20.40;39.80;;;;;;4996827;28;20085;-66
2022/04/09 04:48:46;;;;;;;1.63;0.70;;;20.40;40.00;;;;;;4995039;28;20069;-61
2022/04/09 04:51:12;;;;;;;1.33;0.50;;;20.40;40.00;;;;;;4992958;28;20474;-61
2022/04/09 04:53:37;;;;;;;3.85;0.70;;;20.40;40.00;;;;;;4995473;28;20112;-62
2022/04/09 04:56:03;;;;;;;1.88;0.88;;;20.40;40.10;;;;;;4995719;28;20050;-64
2022/04/09 04:58:30;;;;;;;1.38;0.50;;;20.30;40.10;;;;;;4992516;28;20131;-63
2022/04/09 05:00:56;;;;;;;4.63;0.55;;;20.30;40.20;;;;;;4996301;28;20046;-61
2022/04/09 05:03:22;;;;;;;0.95;0.70;;;20.30;40.20;;;;;;4996550;28;20069;-63
2022/04/09 05:05:47;;;;;;;1.08;0.77;;;20.30;40.30;;;;;;4994771;28;20046;-64
2022/04/09 05:08:13;;;;;;;1.38;0.65;;;20.30;40.30;;;;;;4985590;28;20057;-63
2022/04/09 05:10:39;;;;;;;2.03;0.70;;;20.30;40.30;;;;;;4978491;28;20191;-61
2022/04/09 05:13:04;;;;;;;2.63;0.80;;;20.30;40.30;;;;;;4998537;28;20045;-63
2022/04/09 05:15:30;;;;;;;1.55;0.68;;;20.30;40.30;;;;;;4994502;28;20137;-62
2022/04/09 05:17:56;;;;;;;1.38;0.52;;;20.20;40.30;;;;;;4995904;28;20111;-62
2022/04/09 05:20:22;;;;;;;2.25;0.70;;;20.20;40.30;;;;;;4976843;28;20057;-61
2022/04/09 05:22:47;;;;;;;1.75;0.73;;;20.20;40.30;;;;;;4977322;28;20541;-63
2022/04/09 05:25:18;;;;;;;2.05;0.80;;;20.20;41.00;;;;;;4994006;28;20057;-61
2022/04/09 05:27:44;;;;;;;1.50;0.63;;;20.20;40.30;;;;;;4993170;28;20081;-67
2022/04/09 05:30:10;;;;;;;1.20;0.80;;;20.20;40.30;;;;;;4994690;28;20045;-62
2022/04/09 05:32:36;;;;;;;1.75;0.50;;;20.20;40.30;;;;;;4995160;28;20405;-62
2022/04/09 05:35:09;;;;;;;1.65;0.90;;;20.20;40.30;;;;;;4991952;28;20363;-64
2022/04/09 05:37:34;;;;;;;1.10;0.63;;;20.20;40.30;;;;;;4991812;28;20053;-62
2022/04/09 05:40:00;;;;;;;1.73;0.80;;;20.20;40.30;;;;;;4992192;28;20044;-61
2022/04/09 05:42:26;;;;;;;3.22;0.98;;;20.20;40.40;;;;;;4995736;28;20107;-61
2022/04/09 05:44:55;;;;;;;1.63;0.60;;;20.20;40.30;;;;;;4994543;28;20057;-61
2022/04/09 05:47:21;;;;;;;1.48;0.60;;;20.20;40.40;;;;;;4990684;28;20054;-62
2022/04/09 05:49:46;;;;;;;1.50;0.75;;;20.20;40.30;;;;;;4975221;28;20452;-62
2022/04/09 05:52:13;;;;;;;2.05;0.77;;;20.20;40.40;;;;;;4992499;28;20056;-63
2022/04/09 05:54:39;;;;;;;2.47;0.70;;;20.20;40.30;;;;;;4994418;28;20054;-63
2022/04/09 05:57:06;;;;;;;2.38;0.82;;;20.20;40.30;;;;;;4995101;28;20490;-65
2022/04/09 05:59:31;;;;;;;2.17;0.85;;;20.20;40.30;;;;;;4995403;28;20538;-64
2022/04/09 06:01:57;;;;;;;1.90;0.63;;;20.20;40.30;;;;;;4994285;28;20042;-66
2022/04/09 06:04:23;;;;;;;1.95;0.68;;;20.20;40.20;;;;;;4995501;28;20038;-66
2022/04/09 06:06:49;;;;;;;1.88;0.80;;;20.20;40.20;;;;;;4993516;28;20078;-62
2022/04/09 06:09:16;;;;;;;1.48;0.65;;;20.20;40.20;;;;;;4993242;28;20213;-64
2022/04/09 06:11:42;;;;;;;1.30;0.73;;;20.20;40.20;;;;;;4994444;28;20054;-62
2022/04/09 06:14:10;;;;;;;1.65;0.82;;;20.20;40.20;;;;;;4996875;28;20052;-64
2022/04/09 06:16:38;;;;;;;1.63;0.47;;;20.20;40.10;;;;;;4976498;28;20077;-63
2022/04/09 06:19:05;;;;;;;2.60;0.80;;;20.20;40.10;;;;;;4994192;28;20100;-63
2022/04/09 06:21:32;;;;;;;0.98;0.70;;;20.20;40.10;;;;;;4994325;28;20125;-63
2022/04/09 06:23:58;;;;;;;3.03;0.80;;;20.20;40.10;;;;;;4990840;28;20054;-63
2022/04/09 06:26:23;;;;;;;1.88;0.80;;;20.20;40.00;;;;;;4993953;28;20061;-62
2022/04/09 06:28:50;;;;;;;1.67;0.70;;;20.20;40.00;;;;;;4983134;28;20601;-63
2022/04/09 06:31:15;;;;;;;2.53;0.80;;;20.30;40.10;;;;;;4995682;28;20108;-62
2022/04/09 06:33:41;;;;;;;1.95;0.80;;;20.30;40.00;;;;;;4992721;28;20479;-62
2022/04/09 06:36:07;;;;;;;1.77;0.70;;;20.30;39.90;;;;;;4994713;28;20060;-62
2022/04/09 06:38:33;;;;;;;2.55;0.82;;;20.30;39.90;;;;;;4993692;28;20141;-65
2022/04/09 06:40:59;;;;;;;2.45;1.00;;;20.30;39.90;;;;;;4995159;28;20042;-63
2022/04/09 06:43:26;;;;;;;1.83;0.85;;;20.30;39.80;;;;;;4992777;28;20372;-64
2022/04/09 06:45:52;;;;;;;1.75;0.80;;;20.40;39.90;;;;;;4990192;28;20072;-61
2022/04/09 06:48:17;;;;;;;1.85;0.80;;;20.30;39.80;;;;;;4991572;28;20050;-63
2022/04/09 06:50:43;;;;;;;2.13;0.80;;;20.40;39.80;;;;;;4991900;28;20097;-62
2022/04/09 06:53:09;;;;;;;1.42;0.63;;;20.40;39.90;;;;;;4993810;28;20104;-61
2022/04/09 06:55:34;;;;;;;1.85;1.02;;;20.40;40.00;;;;;;4992498;28;20699;-61
2022/04/09 06:58:03;;;;;;;3.15;0.80;;;20.40;40.10;;;;;;4974501;28;20042;-60
2022/04/09 07:00:29;;;;;;;3.53;0.63;;;20.40;40.30;;;;;;4987441;28;20041;-60
2022/04/09 07:02:55;;;;;;;2.70;0.70;;;20.40;40.50;;;;;;4988389;28;20256;-59
2022/04/09 07:05:21;;;;;;;1.33;0.90;;;20.40;40.90;;;;;;4990891;28;20573;-59
2022/04/09 07:07:50;;;;;;;2.72;0.70;;;20.50;41.30;;;;;;4989273;28;20034;-59
2022/04/09 07:10:16;;;;;;;4.72;0.90;;;20.50;41.30;;;;;;4990636;28;20054;-61
2022/04/09 07:12:43;;;;;;;3.83;1.00;;;20.50;41.50;;;;;;4991000;28;20061;-61
2022/04/09 07:15:09;;;;;;;2.65;0.70;;;20.50;41.60;;;;;;4995204;28;20164;-63
2022/04/09 07:17:36;;;;;;;3.03;1.10;;;20.50;41.60;;;;;;4996308;28;20066;-62
2022/04/09 07:20:07;;;;;;;1.80;0.70;;;20.50;41.80;;;;;;4996543;28;20474;-61
2022/04/09 07:22:34;;;;;;;1.60;0.70;;;20.50;41.90;;;;;;5000825;28;20462;-61
2022/04/09 07:25:00;;;;;;;2.15;0.80;;;20.50;42.00;;;;;;4999413;28;20081;-60
2022/04/09 07:27:42;;;;;;;7.25;1.00;;;20.60;42.10;;;;;;4997165;28;20642;-62
2022/04/09 07:30:11;;;;;;;2.50;0.80;;;20.60;42.20;;;;;;4992139;28;20046;-61
2022/04/09 07:32:36;;;;;;;2.20;1.00;;;20.60;42.20;;;;;;4994723;28;20052;-61
2022/04/09 07:35:03;;;;;;;3.60;0.80;;;20.60;42.20;;;;;;4996590;28;20042;-63
2022/04/09 07:37:28;;;;;;;2.28;0.80;;;20.60;42.20;;;;;;4994959;28;20046;-64
2022/04/09 07:39:54;;;;;;;4.50;0.95;;;20.60;42.20;;;;;;4980512;28;20042;-65
2022/04/09 07:42:20;;;;;;;3.33;0.90;;;20.60;42.10;;;;;;4997146;28;20050;-61
2022/04/09 07:44:47;;;;;;;4.80;0.88;;;20.70;42.10;;;;;;4996838;28;20064;-63
2022/04/09 07:47:13;;;;;;;2.72;0.85;;;20.70;42.10;;;;;;4979335;28;20081;-62
2022/04/09 07:49:38;;;;;;;2.55;0.88;;;20.70;42.10;;;;;;4996583;28;20192;-64
2022/04/09 07:52:04;;;;;;;3.10;1.10;;;20.70;42.00;;;;;;4997871;28;20038;-61
2022/04/09 07:54:31;;;;;;;2.00;0.93;;;20.70;42.00;;;;;;4994392;28;20064;-61
2022/04/09 07:56:57;;;;;;;2.92;0.93;;;20.70;42.00;;;;;;4995654;28;20065;-62
2022/04/09 07:59:22;;;;;;;2.03;0.90;;;20.70;42.10;;;;;;4995816;28;20494;-61
2022/04/09 08:01:48;;;;;;;2.35;0.93;;;20.70;42.20;;;;;;4977612;28;20706;-63
2022/04/09 08:04:13;;;;;;;3.22;1.08;;;20.70;42.20;;;;;;4994471;28;20139;-62
2022/04/09 08:06:39;;;;;;;3.50;0.90;;;20.70;42.30;;;;;;4996984;28;20368;-62
2022/04/09 08:09:05;;;;;;;4.53;1.30;;;20.80;42.40;;;;;;4995451;28;20079;-65
2022/04/09 08:11:31;;;;;;;15.10;1.52;;;20.80;42.40;;;;;;4993823;28;20571;-62
2022/04/09 08:13:56;;;;;;;2.22;1.00;;;20.80;42.50;;;;;;4994216;28;20054;-63
2022/04/09 08:16:23;;;;;;;2.00;0.90;;;20.80;42.40;;;;;;4996065;28;20043;-62
2022/04/09 08:18:48;;;;;;;3.40;0.93;;;20.80;42.50;;;;;;4991107;28;20169;-65
2022/04/09 08:21:16;;;;;;;3.15;0.90;;;20.80;42.50;;;;;;4994976;28;20113;-64
2022/04/09 08:23:41;;;;;;;3.45;0.80;;;20.80;42.50;;;;;;4992617;28;20173;-62
2022/04/09 08:26:07;;;;;;;3.05;0.88;;;20.80;42.60;;;;;;4996377;28;20074;-65
2022/04/09 08:28:36;;;;;;;3.80;1.30;;;20.80;42.60;;;;;;4978892;28;20042;-65
2022/04/09 08:31:02;;;;;;;3.55;0.93;;;20.90;42.70;;;;;;4992244;28;20054;-64
2022/04/09 08:33:27;;;;;;;3.13;0.85;;;20.90;42.70;;;;;;4987389;28;20046;-64
2022/04/09 08:35:53;;;;;;;3.00;1.17;;;20.90;42.80;;;;;;4994958;28;20053;-63
2022/04/09 08:38:19;;;;;;;2.28;0.82;;;20.90;42.60;;;;;;4978337;28;20120;-64
2022/04/09 08:40:46;;;;;;;1.60;0.73;;;20.90;42.60;;;;;;4992937;28;20273;-63
2022/04/09 08:43:12;;;;;;;4.65;0.90;;;20.90;42.50;;;;;;4980458;28;20054;-63
2022/04/09 08:45:40;;;;;;;3.53;1.10;;;20.90;42.50;;;;;;4994577;28;20058;-64
2022/04/09 08:48:07;;;;;;;2.40;0.90;;;20.90;42.50;;;;;;4994266;28;20097;-66
2022/04/09 08:50:35;;;;;;;3.53;1.17;;;20.90;42.40;;;;;;4975565;28;20557;-63
2022/04/09 08:53:06;;;;;;;1.60;0.80;;;20.90;42.40;;;;;;4991944;28;20054;-62
2022/04/09 08:55:34;;;;;;;2.70;0.70;;;20.90;42.30;;;;;;4992069;28;20061;-62
2022/04/09 08:57:59;;;;;;;2.05;0.60;;;21.00;42.20;;;;;;4996222;28;20041;-64
2022/04/09 09:00:25;;;;;;;4.05;1.00;;;20.90;42.20;;;;;;4976990;28;20141;-61
2022/04/09 09:02:53;;;;;;;2.95;0.90;;;21.00;42.20;;;;;;4989924;28;20102;-61
2022/04/09 09:05:39;;;;;;;4.07;0.90;;;20.90;42.20;;;;;;4993427;28;20057;-61
2022/04/09 09:08:06;;;;;;;3.72;0.77;;;21.00;42.20;;;;;;4992716;28;20099;-62
2022/04/09 09:10:32;;;;;;;4.00;0.90;;;21.00;42.20;;;;;;4990802;28;20097;-61
2022/04/09 09:13:05;;;;;;;2.55;0.80;;;21.00;42.20;;;;;;4995444;28;20461;-61
2022/04/09 09:15:52;;;;;;;1.33;0.60;;;21.00;42.20;;;;;;4992779;28;20069;-61
2022/04/09 09:18:28;;;;;;;2.72;1.00;;;21.00;42.20;;;;;;4990768;28;20054;-62
2022/04/09 09:20:59;;;;;;;2.80;1.00;;;21.00;42.40;;;;;;4993235;28;20099;-61
2022/04/09 09:23:27;;;;;;;3.55;1.27;;;21.10;42.20;;;;;;4994691;28;20504;-63
2022/04/09 09:25:55;;;;;;;5.70;1.20;;;21.10;42.30;;;;;;4993063;28;20056;-61
2022/04/09 09:28:27;;;;;;;6.65;1.17;;;21.10;42.30;;;;;;4994233;28;20156;-63
2022/04/09 09:30:54;;;;;;;3.20;1.05;;;21.10;42.30;;;;;;4992610;28;20058;-63
2022/04/09 09:33:20;;;;;;;4.70;1.27;;;21.10;42.30;;;;;;4991896;28;20049;-61
2022/04/09 09:35:59;;;;;;;3.00;1.08;;;21.10;42.90;;;;;;4993662;28;20045;-63
2022/04/09 09:38:34;;;;;;;5.63;1.10;;;21.10;42.30;;;;;;4991095;28;20058;-61
2022/04/09 09:41:03;;;;;;;4.35;1.25;;;21.10;42.10;;;;;;4993654;28;20054;-64
2022/04/09 09:43:29;;;;;;;5.10;1.27;;;21.10;42.20;;;;;;4993359;28;20148;-62
2022/04/09 09:45:55;;;;;;;3.85;1.35;;;21.10;42.30;;;;;;4995653;28;20163;-62
2022/04/09 09:48:26;;;;;;;2.58;0.82;;;21.10;42.30;;;;;;4995863;28;20046;-61
2022/04/09 09:50:53;;;;;;;3.13;1.42;;;21.10;42.20;;;;;;4994646;28;20052;-63
2022/04/09 09:53:33;;;;;;;5.47;1.48;;;21.10;42.20;;;;;;4993620;28;20052;-62
2022/04/09 09:56:00;;;;;;;3.65;1.20;;;21.10;42.10;;;;;;4991865;28;20778;-62
2022/04/09 09:58:28;;;;;;;4.78;1.15;;;21.10;42.20;;;;;;4989449;28;20061;-65
2022/04/09 10:00:56;;;;;;;3.55;1.00;;;21.10;42.20;;;;;;4990484;28;20058;-61
2022/04/09 10:03:22;;;;;;;3.58;1.00;;;21.10;42.10;;;;;;4991045;28;20050;-61
2022/04/09 10:05:49;;;;;;;2.75;0.93;;;21.10;42.00;;;;;;4992215;28;20057;-62
2022/04/09 10:08:15;;;;;;;3.88;1.08;;;21.10;42.00;;;;;;4990972;28;20096;-61
2022/04/09 10:10:46;;;;;;;4.07;1.10;;;21.10;42.00;;;;;;4995047;28;21481;-62
2022/04/09 10:13:15;;;;;;;4.05;1.05;;;21.10;42.00;;;;;;4988579;28;20053;-61
2022/04/09 10:15:46;;;;;;;3.50;0.95;;;21.10;42.70;;;;;;4987643;28;20069;-61
2022/04/09 10:18:12;;;;;;;6.43;1.33;;;21.10;42.00;;;;;;4998025;28;20069;-60
2022/04/09 10:20:39;;;;;;;3.92;1.52;;;21.10;42.00;;;;;;4992405;28;20042;-63
2022/04/09 10:23:09;;;;;;;5.30;1.98;;;21.10;42.00;;;;;;4995328;28;20088;-61
2022/04/09 10:25:39;;;;;;;5.68;1.50;;;21.10;42.10;;;;;;4993156;28;20045;-61
2022/04/09 10:28:06;;;;;;;6.38;1.73;;;21.20;42.20;;;;;;4989267;28;20053;-61
2022/04/09 10:30:39;;;;;;;4.53;1.15;;;21.10;42.20;;;;;;4990324;28;20038;-62
2022/04/09 10:33:24;;;;;;;2.63;1.23;;;21.20;42.20;;;;;;4998670;28;20049;-61
2022/04/09 10:35:50;;;;;;;3.00;1.00;;;21.20;42.00;;;;;;4992142;28;20422;-61
2022/04/09 10:38:20;;;;;;;3.42;1.20;;;21.10;41.80;;;;;;5012176;28;20085;-65
2022/04/09 10:40:45;;;;;;;4.78;1.10;;;21.10;41.70;;;;;;4995103;28;20065;-63
2022/04/09 10:43:38;;;;;;;4.53;1.25;;;21.10;41.60;;;;;;4984974;28;20050;-62
2022/04/09 10:46:05;;;;;;;3.22;1.23;;;21.10;41.40;;;;;;4995073;28;20050;-62
2022/04/09 10:48:35;;;;;;;5.35;1.35;;;21.10;42.30;;;;;;4998674;28;20153;-61
2022/04/09 10:51:08;;;;;;;3.03;1.15;;;21.10;41.50;;;;;;4998395;28;20398;-61
2022/04/09 10:53:45;;;;;;;4.90;1.33;;;21.10;41.50;;;;;;4998349;28;20053;-61
2022/04/09 10:56:24;;;;;;;6.38;1.40;;;21.10;41.50;;;;;;4999651;28;20053;-62
2022/04/09 10:59:25;;;;;;;6.28;1.50;;;21.10;41.50;;;;;;4980216;28;20096;-61
2022/04/09 11:01:51;;;;;;;3.92;1.30;;;21.10;41.50;;;;;;4998348;28;20053;-60
2022/04/09 11:04:32;;;;;;;6.68;1.60;;;21.10;41.60;;;;;;4998252;28;20050;-60
2022/04/09 11:07:23;;;;;;;5.28;1.25;;;21.10;41.60;;;;;;4997723;28;20298;-61
2022/04/09 11:09:58;;;;;;;3.92;1.30;;;21.10;41.80;;;;;;4999079;28;20033;-63
2022/04/09 11:12:28;;;;;;;4.43;1.23;;;21.10;41.70;;;;;;5005286;28;20128;-63
2022/04/09 11:14:58;;;;;;;5.80;1.50;;;21.10;41.70;;;;;;4998717;28;20109;-61
2022/04/09 11:17:37;;;;;;;5.55;1.15;;;21.10;41.80;;;;;;4995156;28;20099;-61
2022/04/09 11:20:06;;;;;;;3.75;1.10;;;21.10;41.90;;;;;;4978643;28;20042;-61
2022/04/09 11:22:37;;;;;;;3.03;1.20;;;21.10;42.00;;;;;;4996229;28;20065;-60
2022/04/09 11:25:08;;;;;;;3.72;1.17;;;21.10;42.10;;;;;;4979178;28;20120;-62
2022/04/09 11:27:34;;;;;;;2.92;1.38;;;21.10;42.10;;;;;;4992331;28;20042;-63
2022/04/09 11:30:00;;;;;;;4.95;1.15;;;21.10;42.00;;;;;;4993384;28;20121;-61
2022/04/09 11:32:28;;;;;;;4.47;1.20;;;21.10;42.10;;;;;;4996866;28;20438;-62
2022/04/09 11:35:00;;;;;;;3.47;1.27;;;21.10;42.10;;;;;;4996687;28;20608;-61
2022/04/09 11:37:30;;;;;;;1.52;1.00;;;21.10;42.10;;;;;;4995044;28;20046;-61
2022/04/09 11:39:56;;;;;;;3.15;1.40;;;21.10;42.10;;;;;;4990852;28;20070;-62
2022/04/09 11:42:22;;;;;;;3.67;1.00;;;21.10;42.10;;;;;;4994026;28;20081;-61
2022/04/09 11:44:48;;;;;;;3.60;1.25;;;21.10;42.10;;;;;;4998429;28;20081;-62
2022/04/09 11:47:22;;;;;;;1.33;0.70;;;21.10;42.10;;;;;;4996354;28;20054;-61
2022/04/09 11:49:48;;;;;;;2.05;1.00;;;21.10;42.00;;;;;;4995253;28;20042;-61
2022/04/09 11:52:24;;;;;;;2.05;0.80;;;21.10;41.90;;;;;;4995232;28;20069;-60
2022/04/09 11:54:51;;;;;;;2.55;0.80;;;21.10;41.60;;;;;;4994113;28;20125;-61
2022/04/09 11:57:16;;;;;;;1.30;0.60;;;21.10;41.60;;;;;;4993638;28;20499;-61
2022/04/09 11:59:42;;;;;;;3.58;0.90;;;21.00;41.50;;;;;;4975063;28;20105;-61
2022/04/09 12:02:25;;;;;;;4.20;1.00;;;21.00;41.50;;;;;;4996226;28;20046;-60
2022/04/09 12:04:52;;;;;;;2.60;0.82;;;21.00;41.50;;;;;;4995403;28;20042;-61
2022/04/09 12:07:18;;;;;;;2.50;1.08;;;21.00;41.80;;;;;;4982605;28;20058;-63
2022/04/09 12:09:44;;;;;;;2.95;0.80;;;21.00;41.80;;;;;;4992459;28;20038;-63
2022/04/09 12:12:11;;;;;;;2.47;1.17;;;21.00;41.60;;;;;;4992600;28;20129;-59
2022/04/09 12:14:37;;;;;;;5.22;1.30;;;21.00;41.60;;;;;;4994753;28;20410;-60
2022/04/09 12:17:10;;;;;;;1.90;0.85;;;21.00;41.60;;;;;;4993396;28;20056;-60
2022/04/09 12:19:37;;;;;;;2.45;1.00;;;21.00;41.70;;;;;;5002078;28;20049;-60
2022/04/09 12:22:14;;;;;;;2.17;0.85;;;20.90;41.90;;;;;;4997370;28;20167;-60
2022/04/09 12:24:49;;;;;;;2.97;1.10;;;20.90;42.00;;;;;;4994282;28;20050;-60
2022/04/09 12:27:15;;;;;;;2.92;1.20;;;21.00;42.10;;;;;;4988638;28;20133;-61
2022/04/09 12:29:56;;;;;;;2.10;1.10;;;21.00;42.20;;;;;;5000672;28;20114;-63
2022/04/09 12:32:26;;;;;;;3.30;1.02;;;21.00;42.30;;;;;;4995589;28;20054;-61
2022/04/09 12:34:52;;;;;;;3.08;1.15;;;21.00;42.30;;;;;;4994547;28;20042;-61
2022/04/09 12:37:18;;;;;;;3.33;1.00;;;21.00;42.10;;;;;;4977505;28;20112;-60
2022/04/09 12:39:44;;;;;;;2.53;1.02;;;21.00;42.00;;;;;;4991966;28;20050;-62
2022/04/09 12:42:10;;;;;;;2.92;0.80;;;20.90;41.90;;;;;;4993356;28;20084;-63
2022/04/09 12:44:37;;;;;;;2.15;0.80;;;20.90;41.80;;;;;;4994856;28;20506;-61
2022/04/09 12:47:04;;;;;;;3.33;1.10;;;20.90;41.90;;;;;;4994000;28;20101;-61
2022/04/09 12:49:33;;;;;;;2.08;0.80;;;20.90;41.90;;;;;;4992986;28;20046;-64